sensor_id;sensor_type;location;lat;lon;timestamp;P1;durP1;ratioP1;P2;durP2;ratioP2
71503;SDS011;59323;50.874;7.028;2022-11-15T00:02:01;11.80;;;5.83;;
71503;SDS011;59323;50.874;7.028;2022-11-15T00:04:29;13.07;;;5.90;;
71503;SDS011;59323;50.874;7.028;2022-11-15T00:06:54;14.93;;;6.00;;
71503;SDS011;59323;50.874;7.028;2022-11-15T00:09:19;12.60;;;6.10;;
71503;SDS011;59323;50.874;7.028;2022-11-15T00:11:44;12.93;;;5.90;;
71503;SDS011;59323;50.874;7.028;2022-11-15T00:14:10;16.37;;;5.90;;
71503;SDS011;59323;50.874;7.028;2022-11-15T00:16:35;14.53;;;6.10;;
71503;SDS011;59323;50.874;7.028;2022-11-15T00:19:00;14.90;;;6.70;;
71503;SDS011;59323;50.874;7.028;2022-11-15T00:21:26;12.33;;;5.97;;
71503;SDS011;59323;50.874;7.028;2022-11-15T00:23:52;12.57;;;5.88;;
71503;SDS011;59323;50.874;7.028;2022-11-15T00:26:17;11.97;;;5.57;;
71503;SDS011;59323;50.874;7.028;2022-11-15T00:28:43;14.13;;;5.90;;
71503;SDS011;59323;50.874;7.028;2022-11-15T00:31:10;14.43;;;6.17;;
71503;SDS011;59323;50.874;7.028;2022-11-15T00:33:38;14.88;;;5.85;;
71503;SDS011;59323;50.874;7.028;2022-11-15T00:36:04;13.27;;;6.53;;
71503;SDS011;59323;50.874;7.028;2022-11-15T00:38:31;14.95;;;5.47;;
71503;SDS011;59323;50.874;7.028;2022-11-15T00:41:01;13.70;;;6.30;;
71503;SDS011;59323;50.874;7.028;2022-11-15T00:43:28;15.02;;;6.30;;
71503;SDS011;59323;50.874;7.028;2022-11-15T00:45:54;12.17;;;6.53;;
71503;SDS011;59323;50.874;7.028;2022-11-15T00:48:19;14.55;;;6.18;;
71503;SDS011;59323;50.874;7.028;2022-11-15T00:50:45;14.77;;;6.00;;
71503;SDS011;59323;50.874;7.028;2022-11-15T00:53:10;13.40;;;6.20;;
71503;SDS011;59323;50.874;7.028;2022-11-15T00:55:36;14.57;;;6.85;;
71503;SDS011;59323;50.874;7.028;2022-11-15T00:58:01;12.97;;;6.20;;
71503;SDS011;59323;50.874;7.028;2022-11-15T01:00:26;13.40;;;6.07;;
71503;SDS011;59323;50.874;7.028;2022-11-15T01:02:52;13.47;;;6.23;;
71503;SDS011;59323;50.874;7.028;2022-11-15T01:05:17;15.75;;;7.13;;
71503;SDS011;59323;50.874;7.028;2022-11-15T01:07:43;13.90;;;6.80;;
71503;SDS011;59323;50.874;7.028;2022-11-15T01:10:08;13.93;;;6.17;;
71503;SDS011;59323;50.874;7.028;2022-11-15T01:12:34;13.45;;;6.05;;
71503;SDS011;59323;50.874;7.028;2022-11-15T01:14:59;12.73;;;6.40;;
71503;SDS011;59323;50.874;7.028;2022-11-15T01:17:25;15.03;;;6.37;;
71503;SDS011;59323;50.874;7.028;2022-11-15T01:19:51;12.57;;;6.07;;
71503;SDS011;59323;50.874;7.028;2022-11-15T01:22:16;13.80;;;6.33;;
71503;SDS011;59323;50.874;7.028;2022-11-15T01:24:41;16.07;;;6.80;;
71503;SDS011;59323;50.874;7.028;2022-11-15T01:27:07;13.97;;;6.33;;
71503;SDS011;59323;50.874;7.028;2022-11-15T01:29:33;12.10;;;6.20;;
71503;SDS011;59323;50.874;7.028;2022-11-15T01:31:58;13.05;;;6.22;;
71503;SDS011;59323;50.874;7.028;2022-11-15T01:34:24;15.80;;;5.97;;
71503;SDS011;59323;50.874;7.028;2022-11-15T01:36:49;13.50;;;6.60;;
71503;SDS011;59323;50.874;7.028;2022-11-15T01:39:14;13.17;;;6.10;;
71503;SDS011;59323;50.874;7.028;2022-11-15T01:41:40;16.05;;;6.15;;
71503;SDS011;59323;50.874;7.028;2022-11-15T01:47:13;12.38;;;6.28;;
71503;SDS011;59323;50.874;7.028;2022-11-15T01:50:02;12.52;;;5.93;;
71503;SDS011;59323;50.874;7.028;2022-11-15T01:52:31;11.47;;;5.47;;
71503;SDS011;59323;50.874;7.028;2022-11-15T01:57:45;14.40;;;6.82;;
71503;SDS011;59323;50.874;7.028;2022-11-15T02:00:15;13.55;;;5.45;;
71503;SDS011;59323;50.874;7.028;2022-11-15T02:02:41;17.25;;;6.18;;
71503;SDS011;59323;50.874;7.028;2022-11-15T02:05:07;12.73;;;5.93;;
71503;SDS011;59323;50.874;7.028;2022-11-15T02:07:34;14.02;;;6.28;;
71503;SDS011;59323;50.874;7.028;2022-11-15T02:10:11;12.85;;;5.85;;
71503;SDS011;59323;50.874;7.028;2022-11-15T02:12:43;12.70;;;5.80;;
71503;SDS011;59323;50.874;7.028;2022-11-15T02:15:10;10.02;;;5.40;;
71503;SDS011;59323;50.874;7.028;2022-11-15T02:33:46;12.40;;;5.18;;
71503;SDS011;59323;50.874;7.028;2022-11-15T02:41:53;11.88;;;5.50;;
71503;SDS011;59323;50.874;7.028;2022-11-15T02:44:33;12.17;;;5.40;;
71503;SDS011;59323;50.874;7.028;2022-11-15T02:47:07;10.95;;;5.20;;
71503;SDS011;59323;50.874;7.028;2022-11-15T02:49:41;11.85;;;5.78;;
71503;SDS011;59323;50.874;7.028;2022-11-15T02:52:17;10.85;;;5.50;;
71503;SDS011;59323;50.874;7.028;2022-11-15T02:54:55;11.98;;;5.75;;
71503;SDS011;59323;50.874;7.028;2022-11-15T02:57:45;13.87;;;5.33;;
71503;SDS011;59323;50.874;7.028;2022-11-15T03:00:30;10.93;;;5.00;;
71503;SDS011;59323;50.874;7.028;2022-11-15T03:03:23;13.50;;;4.80;;
71503;SDS011;59323;50.874;7.028;2022-11-15T03:11:29;9.30;;;4.63;;
71503;SDS011;59323;50.874;7.028;2022-11-15T03:14:08;11.32;;;5.00;;
71503;SDS011;59323;50.874;7.028;2022-11-15T03:16:45;11.50;;;5.10;;
71503;SDS011;59323;50.874;7.028;2022-11-15T03:21:47;12.32;;;5.53;;
71503;SDS011;59323;50.874;7.028;2022-11-15T03:24:14;11.67;;;5.30;;
71503;SDS011;59323;50.874;7.028;2022-11-15T03:26:43;10.85;;;5.07;;
71503;SDS011;59323;50.874;7.028;2022-11-15T03:29:13;11.52;;;5.10;;
71503;SDS011;59323;50.874;7.028;2022-11-15T03:31:45;10.13;;;4.78;;
71503;SDS011;59323;50.874;7.028;2022-11-15T03:34:19;10.73;;;5.30;;
71503;SDS011;59323;50.874;7.028;2022-11-15T03:37:03;11.47;;;5.30;;
71503;SDS011;59323;50.874;7.028;2022-11-15T03:39:29;11.82;;;5.13;;
71503;SDS011;59323;50.874;7.028;2022-11-15T03:50:18;12.23;;;5.13;;
71503;SDS011;59323;50.874;7.028;2022-11-15T03:52:46;11.98;;;4.80;;
71503;SDS011;59323;50.874;7.028;2022-11-15T03:55:15;11.30;;;5.88;;
71503;SDS011;59323;50.874;7.028;2022-11-15T03:57:49;9.75;;;5.38;;
71503;SDS011;59323;50.874;7.028;2022-11-15T04:00:16;11.57;;;5.75;;
71503;SDS011;59323;50.874;7.028;2022-11-15T04:02:42;12.60;;;5.60;;
71503;SDS011;59323;50.874;7.028;2022-11-15T04:05:07;10.80;;;5.37;;
71503;SDS011;59323;50.874;7.028;2022-11-15T04:07:33;12.65;;;5.25;;
71503;SDS011;59323;50.874;7.028;2022-11-15T04:09:58;11.43;;;5.97;;
71503;SDS011;59323;50.874;7.028;2022-11-15T04:12:27;12.00;;;5.40;;
71503;SDS011;59323;50.874;7.028;2022-11-15T04:15:11;12.55;;;5.35;;
71503;SDS011;59323;50.874;7.028;2022-11-15T04:17:39;9.50;;;4.87;;
71503;SDS011;59323;50.874;7.028;2022-11-15T04:20:28;10.80;;;5.57;;
71503;SDS011;59323;50.874;7.028;2022-11-15T04:23:14;12.10;;;5.10;;
71503;SDS011;59323;50.874;7.028;2022-11-15T04:26:04;13.30;;;5.13;;
71503;SDS011;59323;50.874;7.028;2022-11-15T04:28:50;12.15;;;5.22;;
71503;SDS011;59323;50.874;7.028;2022-11-15T04:31:33;10.63;;;4.57;;
71503;SDS011;59323;50.874;7.028;2022-11-15T04:33:59;10.95;;;5.05;;
71503;SDS011;59323;50.874;7.028;2022-11-15T04:36:24;11.20;;;5.10;;
71503;SDS011;59323;50.874;7.028;2022-11-15T04:39:09;9.60;;;4.40;;
71503;SDS011;59323;50.874;7.028;2022-11-15T04:41:35;9.77;;;4.95;;
71503;SDS011;59323;50.874;7.028;2022-11-15T04:44:00;9.87;;;5.40;;
71503;SDS011;59323;50.874;7.028;2022-11-15T04:46:26;11.43;;;4.67;;
71503;SDS011;59323;50.874;7.028;2022-11-15T04:48:52;11.90;;;5.03;;
71503;SDS011;59323;50.874;7.028;2022-11-15T04:51:18;9.93;;;4.30;;
71503;SDS011;59323;50.874;7.028;2022-11-15T04:53:43;9.50;;;4.55;;
71503;SDS011;59323;50.874;7.028;2022-11-15T04:56:08;10.27;;;4.67;;
71503;SDS011;59323;50.874;7.028;2022-11-15T04:58:34;11.23;;;5.20;;
71503;SDS011;59323;50.874;7.028;2022-11-15T05:01:06;9.83;;;4.80;;
71503;SDS011;59323;50.874;7.028;2022-11-15T05:03:39;10.20;;;4.70;;
71503;SDS011;59323;50.874;7.028;2022-11-15T05:06:24;9.88;;;4.30;;
71503;SDS011;59323;50.874;7.028;2022-11-15T05:08:49;9.03;;;4.60;;
71503;SDS011;59323;50.874;7.028;2022-11-15T05:11:14;10.17;;;4.43;;
71503;SDS011;59323;50.874;7.028;2022-11-15T05:13:40;7.73;;;4.33;;
71503;SDS011;59323;50.874;7.028;2022-11-15T05:16:05;9.38;;;4.47;;
71503;SDS011;59323;50.874;7.028;2022-11-15T05:18:31;9.33;;;4.13;;
71503;SDS011;59323;50.874;7.028;2022-11-15T05:20:56;10.63;;;4.10;;
71503;SDS011;59323;50.874;7.028;2022-11-15T05:23:28;11.57;;;4.10;;
71503;SDS011;59323;50.874;7.028;2022-11-15T05:25:53;8.57;;;4.07;;
71503;SDS011;59323;50.874;7.028;2022-11-15T05:28:24;8.25;;;4.13;;
71503;SDS011;59323;50.874;7.028;2022-11-15T05:30:49;9.07;;;4.03;;
71503;SDS011;59323;50.874;7.028;2022-11-15T05:33:14;9.53;;;3.87;;
71503;SDS011;59323;50.874;7.028;2022-11-15T05:35:41;8.93;;;3.80;;
71503;SDS011;59323;50.874;7.028;2022-11-15T05:38:11;7.83;;;3.70;;
71503;SDS011;59323;50.874;7.028;2022-11-15T05:40:36;7.63;;;3.78;;
71503;SDS011;59323;50.874;7.028;2022-11-15T05:43:02;8.10;;;3.83;;
71503;SDS011;59323;50.874;7.028;2022-11-15T05:45:29;8.55;;;3.35;;
71503;SDS011;59323;50.874;7.028;2022-11-15T05:47:56;8.32;;;3.72;;
71503;SDS011;59323;50.874;7.028;2022-11-15T05:50:25;7.23;;;3.63;;
71503;SDS011;59323;50.874;7.028;2022-11-15T05:52:52;9.13;;;3.70;;
71503;SDS011;59323;50.874;7.028;2022-11-15T05:55:19;6.65;;;2.85;;
71503;SDS011;59323;50.874;7.028;2022-11-15T05:57:44;6.70;;;3.07;;
71503;SDS011;59323;50.874;7.028;2022-11-15T06:00:10;7.78;;;3.08;;
71503;SDS011;59323;50.874;7.028;2022-11-15T06:02:36;6.90;;;2.67;;
71503;SDS011;59323;50.874;7.028;2022-11-15T06:05:01;5.90;;;2.90;;
71503;SDS011;59323;50.874;7.028;2022-11-15T06:07:26;6.82;;;2.80;;
71503;SDS011;59323;50.874;7.028;2022-11-15T06:09:54;7.45;;;3.17;;
71503;SDS011;59323;50.874;7.028;2022-11-15T06:12:19;6.37;;;2.80;;
71503;SDS011;59323;50.874;7.028;2022-11-15T06:14:45;8.73;;;3.00;;
71503;SDS011;59323;50.874;7.028;2022-11-15T06:17:10;6.93;;;2.97;;
71503;SDS011;59323;50.874;7.028;2022-11-15T06:19:35;7.57;;;3.03;;
71503;SDS011;59323;50.874;7.028;2022-11-15T06:22:01;8.37;;;3.10;;
71503;SDS011;59323;50.874;7.028;2022-11-15T06:24:26;6.80;;;2.97;;
71503;SDS011;59323;50.874;7.028;2022-11-15T06:26:51;8.88;;;3.17;;
71503;SDS011;59323;50.874;7.028;2022-11-15T06:29:17;7.40;;;2.63;;
71503;SDS011;59323;50.874;7.028;2022-11-15T06:31:42;7.30;;;3.00;;
71503;SDS011;59323;50.874;7.028;2022-11-15T06:34:08;8.40;;;3.42;;
71503;SDS011;59323;50.874;7.028;2022-11-15T06:36:34;8.27;;;2.90;;
71503;SDS011;59323;50.874;7.028;2022-11-15T06:39:01;6.57;;;2.90;;
71503;SDS011;59323;50.874;7.028;2022-11-15T06:41:27;7.38;;;3.50;;
71503;SDS011;59323;50.874;7.028;2022-11-15T06:43:52;8.07;;;2.90;;
71503;SDS011;59323;50.874;7.028;2022-11-15T06:46:18;7.10;;;3.10;;
71503;SDS011;59323;50.874;7.028;2022-11-15T06:48:43;6.23;;;3.10;;
71503;SDS011;59323;50.874;7.028;2022-11-15T06:51:09;10.50;;;3.43;;
71503;SDS011;59323;50.874;7.028;2022-11-15T06:53:34;8.33;;;3.20;;
71503;SDS011;59323;50.874;7.028;2022-11-15T06:56:00;7.65;;;2.85;;
71503;SDS011;59323;50.874;7.028;2022-11-15T06:58:26;8.45;;;2.75;;
71503;SDS011;59323;50.874;7.028;2022-11-15T07:00:52;7.90;;;3.55;;
71503;SDS011;59323;50.874;7.028;2022-11-15T07:03:19;10.00;;;3.10;;
71503;SDS011;59323;50.874;7.028;2022-11-15T07:05:54;7.05;;;3.22;;
71503;SDS011;59323;50.874;7.028;2022-11-15T07:08:21;8.00;;;3.08;;
71503;SDS011;59323;50.874;7.028;2022-11-15T07:10:47;7.53;;;3.10;;
71503;SDS011;59323;50.874;7.028;2022-11-15T07:13:13;7.40;;;3.05;;
71503;SDS011;59323;50.874;7.028;2022-11-15T07:15:38;6.20;;;2.67;;
71503;SDS011;59323;50.874;7.028;2022-11-15T07:18:04;6.45;;;2.50;;
71503;SDS011;59323;50.874;7.028;2022-11-15T07:20:29;6.47;;;2.53;;
71503;SDS011;59323;50.874;7.028;2022-11-15T07:23:04;6.87;;;2.70;;
71503;SDS011;59323;50.874;7.028;2022-11-15T07:25:30;6.72;;;2.72;;
71503;SDS011;59323;50.874;7.028;2022-11-15T07:27:57;4.90;;;2.00;;
71503;SDS011;59323;50.874;7.028;2022-11-15T07:30:23;5.70;;;2.05;;
71503;SDS011;59323;50.874;7.028;2022-11-15T07:32:58;5.60;;;2.13;;
71503;SDS011;59323;50.874;7.028;2022-11-15T07:35:25;7.43;;;2.20;;
71503;SDS011;59323;50.874;7.028;2022-11-15T07:38:01;5.22;;;2.22;;
71503;SDS011;59323;50.874;7.028;2022-11-15T07:40:28;6.20;;;2.10;;
71503;SDS011;59323;50.874;7.028;2022-11-15T07:43:00;5.50;;;2.20;;
71503;SDS011;59323;50.874;7.028;2022-11-15T07:45:26;5.70;;;2.10;;
71503;SDS011;59323;50.874;7.028;2022-11-15T07:47:52;5.90;;;1.95;;
71503;SDS011;59323;50.874;7.028;2022-11-15T07:50:18;5.33;;;2.10;;
71503;SDS011;59323;50.874;7.028;2022-11-15T07:52:44;6.45;;;2.45;;
71503;SDS011;59323;50.874;7.028;2022-11-15T07:55:09;6.32;;;2.20;;
71503;SDS011;59323;50.874;7.028;2022-11-15T07:57:35;6.60;;;2.07;;
71503;SDS011;59323;50.874;7.028;2022-11-15T08:00:01;7.85;;;1.90;;
71503;SDS011;59323;50.874;7.028;2022-11-15T08:02:26;5.27;;;1.90;;
71503;SDS011;59323;50.874;7.028;2022-11-15T08:04:52;5.47;;;2.43;;
71503;SDS011;59323;50.874;7.028;2022-11-15T08:07:17;5.50;;;1.70;;
71503;SDS011;59323;50.874;7.028;2022-11-15T08:09:42;5.13;;;2.00;;
71503;SDS011;59323;50.874;7.028;2022-11-15T08:12:08;4.47;;;1.90;;
71503;SDS011;59323;50.874;7.028;2022-11-15T08:14:34;8.07;;;2.23;;
71503;SDS011;59323;50.874;7.028;2022-11-15T08:17:00;7.50;;;2.10;;
71503;SDS011;59323;50.874;7.028;2022-11-15T08:19:25;5.77;;;2.00;;
71503;SDS011;59323;50.874;7.028;2022-11-15T08:21:50;5.33;;;1.87;;
71503;SDS011;59323;50.874;7.028;2022-11-15T08:24:16;5.50;;;2.13;;
71503;SDS011;59323;50.874;7.028;2022-11-15T08:26:41;6.97;;;2.10;;
71503;SDS011;59323;50.874;7.028;2022-11-15T08:29:07;6.60;;;1.80;;
71503;SDS011;59323;50.874;7.028;2022-11-15T08:31:33;5.43;;;1.95;;
71503;SDS011;59323;50.874;7.028;2022-11-15T08:34:01;5.60;;;1.90;;
71503;SDS011;59323;50.874;7.028;2022-11-15T08:36:27;5.90;;;1.85;;
71503;SDS011;59323;50.874;7.028;2022-11-15T08:38:53;6.50;;;2.30;;
71503;SDS011;59323;50.874;7.028;2022-11-15T08:41:26;4.97;;;2.07;;
71503;SDS011;59323;50.874;7.028;2022-11-15T08:44:01;5.10;;;2.13;;
71503;SDS011;59323;50.874;7.028;2022-11-15T08:46:27;7.43;;;1.90;;
71503;SDS011;59323;50.874;7.028;2022-11-15T08:48:52;6.40;;;1.70;;
71503;SDS011;59323;50.874;7.028;2022-11-15T08:51:18;4.90;;;1.60;;
71503;SDS011;59323;50.874;7.028;2022-11-15T08:53:43;5.83;;;1.87;;
71503;SDS011;59323;50.874;7.028;2022-11-15T08:56:09;5.20;;;2.10;;
71503;SDS011;59323;50.874;7.028;2022-11-15T08:58:35;6.30;;;1.85;;
71503;SDS011;59323;50.874;7.028;2022-11-15T09:01:01;4.55;;;1.70;;
71503;SDS011;59323;50.874;7.028;2022-11-15T09:03:27;4.40;;;1.75;;
71503;SDS011;59323;50.874;7.028;2022-11-15T09:05:59;5.27;;;1.93;;
71503;SDS011;59323;50.874;7.028;2022-11-15T09:08:26;5.32;;;2.00;;
71503;SDS011;59323;50.874;7.028;2022-11-15T09:10:55;5.90;;;1.80;;
71503;SDS011;59323;50.874;7.028;2022-11-15T09:13:20;5.93;;;1.90;;
71503;SDS011;59323;50.874;7.028;2022-11-15T09:15:46;5.97;;;1.80;;
71503;SDS011;59323;50.874;7.028;2022-11-15T09:18:12;5.20;;;1.60;;
71503;SDS011;59323;50.874;7.028;2022-11-15T09:20:37;3.87;;;1.43;;
71503;SDS011;59323;50.874;7.028;2022-11-15T09:23:03;5.77;;;1.83;;
71503;SDS011;59323;50.874;7.028;2022-11-15T09:25:29;5.45;;;1.40;;
71503;SDS011;59323;50.874;7.028;2022-11-15T09:27:55;3.67;;;1.23;;
71503;SDS011;59323;50.874;7.028;2022-11-15T09:30:21;3.65;;;1.38;;
71503;SDS011;59323;50.874;7.028;2022-11-15T09:32:47;4.60;;;2.00;;
71503;SDS011;59323;50.874;7.028;2022-11-15T09:35:13;4.47;;;1.20;;
71503;SDS011;59323;50.874;7.028;2022-11-15T09:37:38;4.67;;;0.90;;
71503;SDS011;59323;50.874;7.028;2022-11-15T09:40:03;3.10;;;1.33;;
71503;SDS011;59323;50.874;7.028;2022-11-15T09:56:27;4.97;;;0.90;;
71503;SDS011;59323;50.874;7.028;2022-11-15T10:04:25;5.43;;;0.82;;
71503;SDS011;59323;50.874;7.028;2022-11-15T10:09:47;3.60;;;0.80;;
71503;SDS011;59323;50.874;7.028;2022-11-15T10:12:18;2.55;;;0.60;;
71503;SDS011;59323;50.874;7.028;2022-11-15T10:14:44;2.67;;;0.50;;
71503;SDS011;59323;50.874;7.028;2022-11-15T10:22:50;2.88;;;0.68;;
71503;SDS011;59323;50.874;7.028;2022-11-15T10:25:19;3.00;;;0.63;;
71503;SDS011;59323;50.874;7.028;2022-11-15T10:27:57;3.92;;;0.60;;
71503;SDS011;59323;50.874;7.028;2022-11-15T10:36:22;3.17;;;0.70;;
71503;SDS011;59323;50.874;7.028;2022-11-15T10:46:27;3.80;;;0.90;;
71503;SDS011;59323;50.874;7.028;2022-11-15T10:48:52;3.37;;;0.80;;
71503;SDS011;59323;50.874;7.028;2022-11-15T10:51:25;3.43;;;0.73;;
71503;SDS011;59323;50.874;7.028;2022-11-15T10:53:53;1.80;;;0.47;;
71503;SDS011;59323;50.874;7.028;2022-11-15T10:56:22;6.10;;;1.02;;
71503;SDS011;59323;50.874;7.028;2022-11-15T10:58:53;2.77;;;0.60;;
71503;SDS011;59323;50.874;7.028;2022-11-15T11:01:25;3.50;;;0.57;;
71503;SDS011;59323;50.874;7.028;2022-11-15T11:04:02;5.35;;;0.70;;
71503;SDS011;59323;50.874;7.028;2022-11-15T11:06:29;4.13;;;0.82;;
71503;SDS011;59323;50.874;7.028;2022-11-15T11:11:23;2.13;;;0.50;;
71503;SDS011;59323;50.874;7.028;2022-11-15T11:13:49;4.70;;;0.70;;
71503;SDS011;59323;50.874;7.028;2022-11-15T11:19:08;2.22;;;0.50;;
71503;SDS011;59323;50.874;7.028;2022-11-15T11:37:53;4.78;;;0.90;;
71503;SDS011;59323;50.874;7.028;2022-11-15T11:40:37;5.40;;;0.70;;
71503;SDS011;59323;50.874;7.028;2022-11-15T11:48:53;2.35;;;0.60;;
71503;SDS011;59323;50.874;7.028;2022-11-15T11:52:07;2.45;;;0.70;;
71503;SDS011;59323;50.874;7.028;2022-11-15T11:54:41;3.20;;;0.70;;
71503;SDS011;59323;50.874;7.028;2022-11-15T11:57:23;2.78;;;0.80;;
71503;SDS011;59323;50.874;7.028;2022-11-15T12:00:13;5.57;;;0.73;;
71503;SDS011;59323;50.874;7.028;2022-11-15T12:05:38;3.60;;;0.70;;
71503;SDS011;59323;50.874;7.028;2022-11-15T12:08:22;4.83;;;0.87;;
71503;SDS011;59323;50.874;7.028;2022-11-15T12:10:50;3.22;;;0.70;;
71503;SDS011;59323;50.874;7.028;2022-11-15T12:13:24;6.45;;;0.65;;
71503;SDS011;59323;50.874;7.028;2022-11-15T12:16:00;2.78;;;0.50;;
71503;SDS011;59323;50.874;7.028;2022-11-15T12:18:30;3.33;;;0.75;;
71503;SDS011;59323;50.874;7.028;2022-11-15T12:20:57;2.67;;;0.70;;
71503;SDS011;59323;50.874;7.028;2022-11-15T12:23:28;3.60;;;0.85;;
71503;SDS011;59323;50.874;7.028;2022-11-15T12:26:02;1.57;;;0.50;;
71503;SDS011;59323;50.874;7.028;2022-11-15T12:28:46;1.85;;;0.50;;
71503;SDS011;59323;50.874;7.028;2022-11-15T12:31:22;1.65;;;0.63;;
71503;SDS011;59323;50.874;7.028;2022-11-15T12:33:55;1.88;;;0.52;;
71503;SDS011;59323;50.874;7.028;2022-11-15T12:39:00;5.57;;;0.90;;
71503;SDS011;59323;50.874;7.028;2022-11-15T12:41:39;3.47;;;0.70;;
71503;SDS011;59323;50.874;7.028;2022-11-15T12:44:13;2.70;;;0.90;;
71503;SDS011;59323;50.874;7.028;2022-11-15T13:04:51;5.23;;;1.33;;
71503;SDS011;59323;50.874;7.028;2022-11-15T13:17:51;4.80;;;1.43;;
71503;SDS011;59323;50.874;7.028;2022-11-15T13:20:28;5.95;;;1.60;;
71503;SDS011;59323;50.874;7.028;2022-11-15T13:23:11;5.85;;;1.90;;
71503;SDS011;59323;50.874;7.028;2022-11-15T13:28:28;5.75;;;1.50;;
71503;SDS011;59323;50.874;7.028;2022-11-15T13:31:40;5.50;;;1.80;;
71503;SDS011;59323;50.874;7.028;2022-11-15T13:33:46;6.97;;;1.50;;
71503;SDS011;59323;50.874;7.028;2022-11-15T13:36:30;4.77;;;1.37;;
71503;SDS011;59323;50.874;7.028;2022-11-15T13:39:02;7.35;;;1.50;;
71503;SDS011;59323;50.874;7.028;2022-11-15T13:41:44;4.40;;;1.52;;
71503;SDS011;59323;50.874;7.028;2022-11-15T13:44:19;5.30;;;1.67;;
71503;SDS011;59323;50.874;7.028;2022-11-15T13:46:49;4.18;;;1.63;;
71503;SDS011;59323;50.874;7.028;2022-11-15T13:49:30;4.10;;;1.60;;
71503;SDS011;59323;50.874;7.028;2022-11-15T13:51:57;6.75;;;1.50;;
71503;SDS011;59323;50.874;7.028;2022-11-15T13:56:57;4.63;;;1.33;;
71503;SDS011;59323;50.874;7.028;2022-11-15T13:59:27;4.65;;;1.52;;
71503;SDS011;59323;50.874;7.028;2022-11-15T14:01:56;5.97;;;1.90;;
71503;SDS011;59323;50.874;7.028;2022-11-15T14:04:26;5.35;;;1.63;;
71503;SDS011;59323;50.874;7.028;2022-11-15T14:07:18;8.00;;;1.90;;
71503;SDS011;59323;50.874;7.028;2022-11-15T14:09:45;4.57;;;1.55;;
71503;SDS011;59323;50.874;7.028;2022-11-15T14:17:50;4.60;;;1.67;;
71503;SDS011;59323;50.874;7.028;2022-11-15T14:20:58;6.47;;;1.80;;
71503;SDS011;59323;50.874;7.028;2022-11-15T14:23:18;3.97;;;1.10;;
71503;SDS011;59323;50.874;7.028;2022-11-15T14:25:56;4.55;;;1.08;;
71503;SDS011;59323;50.874;7.028;2022-11-15T14:30:48;3.63;;;1.20;;
71503;SDS011;59323;50.874;7.028;2022-11-15T14:35:44;3.10;;;1.27;;
71503;SDS011;59323;50.874;7.028;2022-11-15T14:38:10;6.32;;;1.48;;
71503;SDS011;59323;50.874;7.028;2022-11-15T14:40:35;3.13;;;1.20;;
71503;SDS011;59323;50.874;7.028;2022-11-15T14:43:01;3.93;;;1.33;;
71503;SDS011;59323;50.874;7.028;2022-11-15T14:45:26;2.83;;;0.93;;
71503;SDS011;59323;50.874;7.028;2022-11-15T14:47:52;4.13;;;1.07;;
71503;SDS011;59323;50.874;7.028;2022-11-15T14:50:18;6.70;;;1.60;;
71503;SDS011;59323;50.874;7.028;2022-11-15T14:52:45;4.53;;;1.13;;
71503;SDS011;59323;50.874;7.028;2022-11-15T14:55:43;5.15;;;1.00;;
71503;SDS011;59323;50.874;7.028;2022-11-15T14:58:02;4.50;;;1.20;;
71503;SDS011;59323;50.874;7.028;2022-11-15T15:00:32;3.97;;;1.40;;
71503;SDS011;59323;50.874;7.028;2022-11-15T15:02:57;6.25;;;1.30;;
71503;SDS011;59323;50.874;7.028;2022-11-15T15:05:25;3.78;;;1.10;;
71503;SDS011;59323;50.874;7.028;2022-11-15T15:07:54;4.47;;;0.90;;
71503;SDS011;59323;50.874;7.028;2022-11-15T15:10:20;4.10;;;1.20;;
71503;SDS011;59323;50.874;7.028;2022-11-15T15:12:45;3.63;;;1.57;;
71503;SDS011;59323;50.874;7.028;2022-11-15T15:15:21;2.70;;;1.10;;
71503;SDS011;59323;50.874;7.028;2022-11-15T15:17:48;4.13;;;1.40;;
71503;SDS011;59323;50.874;7.028;2022-11-15T15:20:14;5.50;;;1.27;;
71503;SDS011;59323;50.874;7.028;2022-11-15T15:22:40;2.87;;;0.90;;
71503;SDS011;59323;50.874;7.028;2022-11-15T15:25:14;2.67;;;1.10;;
71503;SDS011;59323;50.874;7.028;2022-11-15T15:27:43;5.10;;;1.57;;
71503;SDS011;59323;50.874;7.028;2022-11-15T15:30:09;6.13;;;1.30;;
71503;SDS011;59323;50.874;7.028;2022-11-15T15:32:35;3.07;;;1.20;;
71503;SDS011;59323;50.874;7.028;2022-11-15T15:35:00;3.88;;;1.40;;
71503;SDS011;59323;50.874;7.028;2022-11-15T15:37:26;6.47;;;1.40;;
71503;SDS011;59323;50.874;7.028;2022-11-15T15:39:52;9.27;;;2.40;;
71503;SDS011;59323;50.874;7.028;2022-11-15T15:42:18;5.25;;;1.80;;
71503;SDS011;59323;50.874;7.028;2022-11-15T15:44:49;6.43;;;1.77;;
71503;SDS011;59323;50.874;7.028;2022-11-15T15:47:16;3.90;;;1.30;;
71503;SDS011;59323;50.874;7.028;2022-11-15T15:49:43;4.68;;;1.75;;
71503;SDS011;59323;50.874;7.028;2022-11-15T15:52:09;7.15;;;1.83;;
71503;SDS011;59323;50.874;7.028;2022-11-15T15:54:34;4.53;;;1.47;;
71503;SDS011;59323;50.874;7.028;2022-11-15T15:57:00;11.17;;;2.50;;
71503;SDS011;59323;50.874;7.028;2022-11-15T15:59:25;6.00;;;1.83;;
71503;SDS011;59323;50.874;7.028;2022-11-15T16:01:50;5.20;;;1.93;;
71503;SDS011;59323;50.874;7.028;2022-11-15T16:04:16;5.47;;;2.20;;
71503;SDS011;59323;50.874;7.028;2022-11-15T16:06:41;7.20;;;2.93;;
71503;SDS011;59323;50.874;7.028;2022-11-15T16:09:15;10.70;;;2.70;;
71503;SDS011;59323;50.874;7.028;2022-11-15T16:11:43;8.83;;;2.40;;
71503;SDS011;59323;50.874;7.028;2022-11-15T16:14:09;8.48;;;3.17;;
71503;SDS011;59323;50.874;7.028;2022-11-15T16:16:35;7.20;;;2.65;;
71503;SDS011;59323;50.874;7.028;2022-11-15T16:19:02;5.87;;;1.90;;
71503;SDS011;59323;50.874;7.028;2022-11-15T16:21:28;5.05;;;1.60;;
71503;SDS011;59323;50.874;7.028;2022-11-15T16:23:53;8.50;;;2.43;;
71503;SDS011;59323;50.874;7.028;2022-11-15T16:26:24;5.95;;;1.80;;
71503;SDS011;59323;50.874;7.028;2022-11-15T16:28:51;5.18;;;2.17;;
71503;SDS011;59323;50.874;7.028;2022-11-15T16:31:17;7.63;;;3.20;;
71503;SDS011;59323;50.874;7.028;2022-11-15T16:33:45;3.90;;;1.77;;
71503;SDS011;59323;50.874;7.028;2022-11-15T16:36:17;4.95;;;1.83;;
71503;SDS011;59323;50.874;7.028;2022-11-15T16:38:47;7.35;;;1.60;;
71503;SDS011;59323;50.874;7.028;2022-11-15T16:41:16;3.42;;;1.38;;
71503;SDS011;59323;50.874;7.028;2022-11-15T16:43:46;4.57;;;1.77;;
71503;SDS011;59323;50.874;7.028;2022-11-15T16:46:20;5.78;;;1.70;;
71503;SDS011;59323;50.874;7.028;2022-11-15T16:48:48;5.53;;;1.88;;
71503;SDS011;59323;50.874;7.028;2022-11-15T16:51:14;4.70;;;1.50;;
71503;SDS011;59323;50.874;7.028;2022-11-15T16:53:40;4.25;;;1.48;;
71503;SDS011;59323;50.874;7.028;2022-11-15T16:56:39;4.23;;;1.27;;
71503;SDS011;59323;50.874;7.028;2022-11-15T16:58:58;5.65;;;2.00;;
71503;SDS011;59323;50.874;7.028;2022-11-15T17:01:27;6.30;;;1.70;;
71503;SDS011;59323;50.874;7.028;2022-11-15T17:03:56;6.93;;;2.13;;
71503;SDS011;59323;50.874;7.028;2022-11-15T17:06:22;5.55;;;2.30;;
71503;SDS011;59323;50.874;7.028;2022-11-15T17:08:48;8.00;;;2.13;;
71503;SDS011;59323;50.874;7.028;2022-11-15T17:11:15;4.28;;;1.60;;
71503;SDS011;59323;50.874;7.028;2022-11-15T17:13:42;4.93;;;1.50;;
71503;SDS011;59323;50.874;7.028;2022-11-15T17:16:09;5.40;;;1.80;;
71503;SDS011;59323;50.874;7.028;2022-11-15T17:18:39;7.38;;;2.70;;
71503;SDS011;59323;50.874;7.028;2022-11-15T17:21:10;6.28;;;2.05;;
71503;SDS011;59323;50.874;7.028;2022-11-15T17:23:39;4.60;;;1.80;;
71503;SDS011;59323;50.874;7.028;2022-11-15T17:26:05;4.27;;;1.60;;
71503;SDS011;59323;50.874;7.028;2022-11-15T17:28:31;3.65;;;1.70;;
71503;SDS011;59323;50.874;7.028;2022-11-15T17:30:57;5.88;;;2.03;;
71503;SDS011;59323;50.874;7.028;2022-11-15T17:33:23;4.67;;;1.90;;
71503;SDS011;59323;50.874;7.028;2022-11-15T17:35:58;6.10;;;2.00;;
71503;SDS011;59323;50.874;7.028;2022-11-15T17:38:25;5.17;;;2.40;;